Pavonia, Ohio
Current Conditions -  °F | °C
As of 10:52 AM on Monday 26 Jan 2015 (Local Time) from KMFD Reporting Station
Overcast Overcast  
Wind Chill:   Ceiling: 1200
Heat Index: 19°   Visibility: 10mi
Dew Point: 14°   Wind: 16mph
Humidity: 81%   Direction: 350°N
Pressure: 29.82"   Gusts: NA
Location:  40.7789°N, 82.5216°W
Report Text: KMFD 261552Z 35014KT 10SM OVC012 M07/M10 A2982 RMK AO2 SLP117 T10721100
Loading
Personal Weather Stations






























Interactive Weather Map New forecast layout! Learn more

10-Day Weather Forecast

Advertisements
Track Severe Weather on mobile